createdAt,value
2018-09-03T00:01:19.867Z,2.00
2018-09-03T00:03:49.806Z,1.90
2018-09-03T00:06:31.237Z,2.03
2018-09-03T00:09:00.486Z,1.70
2018-09-03T00:11:30.294Z,2.13
2018-09-03T00:14:00.123Z,1.80
2018-09-03T00:16:31.550Z,2.10
2018-09-03T00:19:02.028Z,1.63
2018-09-03T00:21:31.480Z,2.10
2018-09-03T00:24:02.720Z,1.70
2018-09-03T00:26:34.531Z,2.20
2018-09-03T00:29:03.762Z,1.77
2018-09-03T00:31:38.517Z,2.10
2018-09-03T00:34:14.449Z,1.90
2018-09-03T00:36:56.669Z,2.20
2018-09-03T00:39:31.829Z,1.90
2018-09-03T00:42:07.405Z,1.90
2018-09-03T00:44:42.734Z,1.80
2018-09-03T00:47:23.294Z,1.87
2018-09-03T00:49:53.204Z,2.00
2018-09-03T00:52:22.812Z,2.13
2018-09-03T00:54:52.207Z,1.83
2018-09-03T00:57:21.810Z,1.97
2018-09-03T00:59:51.568Z,1.90
2018-09-03T01:02:20.333Z,1.93
2018-09-03T01:04:50.600Z,2.07
2018-09-03T01:07:19.886Z,1.90
2018-09-03T01:09:48.508Z,1.87
2018-09-03T01:12:17.746Z,2.30
2018-09-03T01:14:47.698Z,1.70
2018-09-03T01:17:28.397Z,2.27
2018-09-03T01:19:58.194Z,2.30
2018-09-03T01:22:27.519Z,2.20
2018-09-03T01:24:57.760Z,2.00
2018-09-03T01:27:28.394Z,2.07
2018-09-03T01:29:58.795Z,2.17
2018-09-03T01:32:28.067Z,2.30
2018-09-03T01:34:58.433Z,2.20
2018-09-03T01:37:38.388Z,2.37
2018-09-03T01:40:07.713Z,2.37
2018-09-03T01:42:37.442Z,2.37
2018-09-03T01:45:06.714Z,2.30
2018-09-03T01:47:35.949Z,1.97
2018-09-03T01:50:06.817Z,2.10
2018-09-03T01:52:36.268Z,2.10
2018-09-03T01:55:05.696Z,1.97
2018-09-03T01:57:41.648Z,1.97
2018-09-03T02:00:10.897Z,2.10
2018-09-03T02:02:39.643Z,2.23
2018-09-03T02:05:08.149Z,2.30
2018-09-03T02:07:37.251Z,2.37
2018-09-03T02:10:07.103Z,2.30
2018-09-03T02:12:37.925Z,2.30
2018-09-03T02:15:07.401Z,1.97
2018-09-03T02:17:38.265Z,2.07
2018-09-03T02:20:08.642Z,2.20
2018-09-03T02:22:37.870Z,2.33
2018-09-03T02:25:07.656Z,2.30
2018-09-03T02:27:53.655Z,2.30
2018-09-03T02:30:23.000Z,1.90
2018-09-03T02:32:52.266Z,2.30
2018-09-03T02:35:21.023Z,2.43
2018-09-03T02:37:53.185Z,2.40
2018-09-03T02:40:22.121Z,2.13
2018-09-03T02:42:51.829Z,2.17
2018-09-03T02:45:21.821Z,2.50
2018-09-03T02:47:50.934Z,2.00
2018-09-03T02:50:20.244Z,2.07
2018-09-03T02:52:49.441Z,2.03
2018-09-03T02:55:19.430Z,2.23
2018-09-03T02:57:48.697Z,2.30
2018-09-03T03:00:17.414Z,2.13
2018-09-03T03:02:48.163Z,2.00
2018-09-03T03:05:17.074Z,2.37
2018-09-03T03:07:46.971Z,1.90
2018-09-03T03:10:18.632Z,2.63
2018-09-03T03:12:48.229Z,2.70
2018-09-03T03:15:17.044Z,2.70
2018-09-03T03:17:46.606Z,2.60
2018-09-03T03:20:16.742Z,2.20
2018-09-03T03:22:45.586Z,2.33
2018-09-03T03:25:14.123Z,2.33
2018-09-03T03:27:42.942Z,2.27
2018-09-03T03:30:11.503Z,2.23
2018-09-03T03:32:48.906Z,2.30
2018-09-03T03:35:18.671Z,2.43
2018-09-03T03:37:47.769Z,2.23
2018-09-03T03:40:17.965Z,2.37
2018-09-03T03:43:10.307Z,2.50
2018-09-03T03:45:39.571Z,2.70
2018-09-03T03:48:09.512Z,2.47
2018-09-03T03:50:39.817Z,2.30
2018-09-03T03:53:16.631Z,2.43
2018-09-03T03:55:45.561Z,2.60
2018-09-03T03:58:14.526Z,2.40
2018-09-03T04:00:45.011Z,2.47
2018-09-03T04:03:14.253Z,2.60
2018-09-03T04:05:43.469Z,2.30
2018-09-03T04:08:12.027Z,2.10
2018-09-03T04:10:41.673Z,2.23
2018-09-03T04:13:10.536Z,2.20
2018-09-03T04:15:49.337Z,2.27
2018-09-03T04:18:19.271Z,2.27
2018-09-03T04:20:48.457Z,2.00
2018-09-03T04:23:17.790Z,2.17
2018-09-03T04:25:46.468Z,2.27
2018-09-03T04:28:16.916Z,2.37
2018-09-03T04:30:45.708Z,2.23
2018-09-03T04:33:14.746Z,2.43
2018-09-03T04:35:43.963Z,2.60
2018-09-03T04:38:13.573Z,2.60
2018-09-03T04:40:43.758Z,2.50
2018-09-03T04:43:12.522Z,2.90
2018-09-03T04:45:41.046Z,2.77
2018-09-03T04:48:10.282Z,2.50
2018-09-03T04:50:39.835Z,2.70
2018-09-03T04:53:08.749Z,2.63
2018-09-03T04:55:37.971Z,2.60
2018-09-03T04:58:07.095Z,2.87
2018-09-03T05:00:36.354Z,3.10
2018-09-03T05:03:04.894Z,2.53
2018-09-03T05:05:34.392Z,3.20
2018-09-03T05:08:03.809Z,2.37
2018-09-03T05:10:34.624Z,2.30
2018-09-03T05:13:04.494Z,2.73
2018-09-03T05:15:33.221Z,2.70
2018-09-03T05:18:03.055Z,2.77
2018-09-03T05:20:33.243Z,2.90
2018-09-03T05:23:02.879Z,2.80
2018-09-03T05:25:31.895Z,3.40
2018-09-03T05:28:01.325Z,2.90
2018-09-03T05:30:33.927Z,2.80
2018-09-03T05:33:04.539Z,3.43
2018-09-03T05:35:33.806Z,2.90
2018-09-03T05:38:03.345Z,2.83
2018-09-03T05:40:33.979Z,3.23
2018-09-03T05:43:04.114Z,3.57
2018-09-03T05:45:33.243Z,3.57
2018-09-03T05:48:01.790Z,2.93
2018-09-03T05:50:31.764Z,3.80
2018-09-03T05:53:00.596Z,3.57
2018-09-03T05:55:29.884Z,3.40
2018-09-03T05:57:59.301Z,3.50
2018-09-03T06:00:27.825Z,3.40
2018-09-03T06:02:57.717Z,3.17
2018-09-03T06:05:26.892Z,3.50
2018-09-03T06:07:55.727Z,3.80
2018-09-03T06:10:24.959Z,3.70
2018-09-03T06:13:14.419Z,3.67
2018-09-03T06:15:43.413Z,3.60
2018-09-03T06:18:12.893Z,4.03
2018-09-03T06:20:43.714Z,3.93
2018-09-03T06:23:12.855Z,3.80
2018-09-03T06:25:42.090Z,4.07
2018-09-03T06:28:11.896Z,3.27
2018-09-03T06:30:41.853Z,3.60
2018-09-03T06:33:11.163Z,3.93
2018-09-03T06:35:42.001Z,4.00
2018-09-03T06:38:12.925Z,4.07
2018-09-03T06:40:42.850Z,3.93
2018-09-03T06:43:12.552Z,4.03
2018-09-03T06:45:47.582Z,4.00
2018-09-03T06:48:17.186Z,5.00
2018-09-03T06:50:46.872Z,4.60
2018-09-03T06:53:16.670Z,4.80
2018-09-03T06:55:53.690Z,4.23
2018-09-03T06:58:24.497Z,4.43
2018-09-03T07:00:53.305Z,4.27
2018-09-03T07:03:24.269Z,4.43
2018-09-03T07:05:55.734Z,4.13
2018-09-03T07:08:26.838Z,4.37
2018-09-03T07:10:55.390Z,4.10
2018-09-03T07:13:24.551Z,4.30
2018-09-03T07:15:57.980Z,4.00
2018-09-03T07:18:27.174Z,3.83
2018-09-03T07:20:57.878Z,3.73
2018-09-03T07:23:27.514Z,3.43
2018-09-03T07:25:58.683Z,3.83
2018-09-03T07:28:28.411Z,3.97
2018-09-03T07:30:57.823Z,3.97
2018-09-03T07:33:27.024Z,3.90
2018-09-03T07:35:56.508Z,4.27
2018-09-03T07:38:26.749Z,3.77
2018-09-03T07:40:56.503Z,3.43
2018-09-03T07:43:26.845Z,3.27
2018-09-03T07:46:02.953Z,3.60
2018-09-03T07:48:32.118Z,3.53
2018-09-03T07:51:01.383Z,3.23
2018-09-03T07:53:30.090Z,3.73
2018-09-03T07:55:58.639Z,3.10
2018-09-03T07:58:27.864Z,3.90
2018-09-03T08:00:56.919Z,3.40
2018-09-03T08:03:25.663Z,3.60
2018-09-03T08:05:54.941Z,3.60
2018-09-03T08:08:25.206Z,3.90
2018-09-03T08:10:54.494Z,3.83
2018-09-03T08:13:30.621Z,3.47
2018-09-03T08:16:10.324Z,3.93
2018-09-03T08:18:39.274Z,3.70
2018-09-03T08:21:08.092Z,3.70
2018-09-03T08:23:36.884Z,3.80
2018-09-03T08:26:16.726Z,3.80
2018-09-03T08:28:45.305Z,3.70
2018-09-03T08:31:14.015Z,3.80
2018-09-03T08:33:43.128Z,3.43
2018-09-03T08:36:11.918Z,3.60
2018-09-03T08:38:42.055Z,3.40
2018-09-03T08:41:11.679Z,3.33
2018-09-03T08:43:40.870Z,3.07
2018-09-03T08:46:15.037Z,3.37
2018-09-03T08:48:44.238Z,3.57
2018-09-03T08:51:13.530Z,3.00
2018-09-03T08:53:42.658Z,2.90
2018-09-03T08:56:11.950Z,3.10
2018-09-03T08:58:40.489Z,2.63
2018-09-03T09:01:09.055Z,2.60
2018-09-03T09:03:40.709Z,3.50
2018-09-03T09:06:09.438Z,2.50
2018-09-03T09:08:37.932Z,3.00
2018-09-03T09:11:07.197Z,2.70
2018-09-03T09:13:36.714Z,3.17
2018-09-03T09:16:05.856Z,3.03
2018-09-03T09:18:35.106Z,3.33
2018-09-03T09:21:04.274Z,2.90
2018-09-03T09:23:32.872Z,3.00
2018-09-03T09:26:02.234Z,3.13
2018-09-03T09:28:51.126Z,3.27
2018-09-03T09:31:20.233Z,3.53
2018-09-03T09:33:49.010Z,2.50
2018-09-03T09:36:18.389Z,3.33
2018-09-03T09:38:47.727Z,3.67
2018-09-03T09:41:17.024Z,3.43
2018-09-03T09:43:45.806Z,3.00
2018-09-03T09:46:15.417Z,2.70
2018-09-03T09:48:44.575Z,3.03
2018-09-03T09:51:13.865Z,3.00
2018-09-03T09:53:42.737Z,3.07
2018-09-03T09:56:11.965Z,3.03
2018-09-03T09:58:44.125Z,2.80
2018-09-03T10:01:20.478Z,3.40
2018-09-03T10:03:50.410Z,3.00
2018-09-03T10:06:19.786Z,2.93
2018-09-03T10:08:49.671Z,2.87
2018-09-03T10:11:20.465Z,2.67
2018-09-03T10:13:49.771Z,3.17
2018-09-03T10:16:18.778Z,3.40
2018-09-03T10:18:48.957Z,2.60
2018-09-03T10:21:18.181Z,2.60
2018-09-03T10:23:47.426Z,2.60
2018-09-03T10:26:16.795Z,2.77
2018-09-03T10:28:46.041Z,2.70
2018-09-03T10:31:17.969Z,2.90
2018-09-03T10:33:47.222Z,2.87
2018-09-03T10:36:15.987Z,3.20
2018-09-03T10:38:45.059Z,2.97
2018-09-03T10:41:14.051Z,2.47
2018-09-03T10:43:42.622Z,2.70
2018-09-03T10:46:11.518Z,3.03
2018-09-03T10:48:40.628Z,2.87
2018-09-03T10:51:10.413Z,2.70
2018-09-03T10:53:40.738Z,2.93
2018-09-03T10:56:09.886Z,3.00
2018-09-03T10:58:40.438Z,3.33
2018-09-03T11:01:18.493Z,2.70
2018-09-03T11:03:48.242Z,2.53
2018-09-03T11:06:17.758Z,3.20
2018-09-03T11:08:46.676Z,2.50
2018-09-03T11:11:15.643Z,2.20
2018-09-03T11:13:44.338Z,2.50
2018-09-03T11:16:13.765Z,2.70
2018-09-03T11:18:43.747Z,2.50
2018-09-03T11:21:13.642Z,2.50
2018-09-03T11:23:44.471Z,2.60
2018-09-03T11:26:13.265Z,2.20
2018-09-03T11:28:43.489Z,2.93
2018-09-03T11:31:12.735Z,2.57
2018-09-03T11:33:42.083Z,2.53
2018-09-03T11:36:12.030Z,2.17
2018-09-03T11:38:40.625Z,2.00
2018-09-03T11:41:10.739Z,2.40
2018-09-03T11:43:42.057Z,2.23
2018-09-03T11:46:11.773Z,2.57
2018-09-03T11:48:42.041Z,2.30
2018-09-03T11:51:13.617Z,2.30
2018-09-03T11:53:42.786Z,2.57
2018-09-03T11:56:11.798Z,2.20
2018-09-03T11:58:41.662Z,2.33
2018-09-03T12:01:13.034Z,2.50
2018-09-03T12:03:44.464Z,2.30
2018-09-03T12:06:14.403Z,2.30
2018-09-03T12:08:43.479Z,2.13
2018-09-03T12:11:15.246Z,2.27
2018-09-03T12:13:44.258Z,2.40
2018-09-03T12:16:25.630Z,2.37
2018-09-03T12:18:57.869Z,1.80
2018-09-03T12:21:34.826Z,2.17
2018-09-03T12:24:05.554Z,2.43
2018-09-03T12:26:36.739Z,2.43
2018-09-03T12:29:07.474Z,2.00
2018-09-03T12:31:40.237Z,1.83
2018-09-03T12:34:08.791Z,2.60
2018-09-03T12:36:37.912Z,2.30
2018-09-03T12:39:10.298Z,2.07
2018-09-03T12:42:02.633Z,2.00
2018-09-03T12:44:31.796Z,2.23
2018-09-03T12:47:01.878Z,2.27
2018-09-03T12:49:31.446Z,1.90
2018-09-03T12:55:10.434Z,2.37
2018-09-03T12:57:41.639Z,2.10
2018-09-03T13:00:16.286Z,2.27
2018-09-03T13:02:47.537Z,2.13
2018-09-03T13:05:22.760Z,2.30
2018-09-03T13:07:52.743Z,2.40
2018-09-03T13:10:22.849Z,2.30
2018-09-03T13:12:53.008Z,2.20
2018-09-03T13:18:35.260Z,2.20
2018-09-03T13:21:05.345Z,1.90
2018-09-03T13:23:36.174Z,2.00
2018-09-03T13:26:05.245Z,1.97
2018-09-03T13:28:35.282Z,2.27
2018-09-03T13:31:05.738Z,2.20
2018-09-03T13:33:34.318Z,2.30
2018-09-03T13:36:13.912Z,2.10
2018-09-03T13:38:43.166Z,2.10
2018-09-03T13:41:12.476Z,2.20
2018-09-03T13:43:41.785Z,2.17
2018-09-03T13:46:11.019Z,1.93
2018-09-03T13:48:40.489Z,2.00
2018-09-03T13:51:09.754Z,2.30
2018-09-03T13:53:39.645Z,2.33
2018-09-03T13:56:08.587Z,2.03
2018-09-03T13:58:38.594Z,2.20
2018-09-03T14:01:08.759Z,2.10
2018-09-03T14:03:38.494Z,2.20
2018-09-03T14:06:19.277Z,2.40
2018-09-03T14:08:49.102Z,2.30
2018-09-03T14:11:18.633Z,2.70
2018-09-03T14:13:47.574Z,2.13
2018-09-03T14:16:24.898Z,2.47
2018-09-03T14:18:54.103Z,2.17
2018-09-03T14:21:24.457Z,2.20
2018-09-03T14:23:53.613Z,2.23
2018-09-03T14:26:23.660Z,2.20
2018-09-03T14:28:53.770Z,2.10
2018-09-03T14:31:23.807Z,1.90
2018-09-03T14:33:53.949Z,2.10
2018-09-03T14:36:25.774Z,2.23
2018-09-03T14:38:55.329Z,2.13
2018-09-03T14:41:25.675Z,1.73
2018-09-03T14:43:55.238Z,2.07
2018-09-03T14:46:26.920Z,2.20
2018-09-03T14:48:56.501Z,2.10
2018-09-03T14:51:26.132Z,2.10
2018-09-03T14:53:55.727Z,2.33
2018-09-03T14:56:26.070Z,2.17
2018-09-03T14:58:55.955Z,1.93
2018-09-03T15:01:24.902Z,1.90
2018-09-03T15:03:55.207Z,2.17
2018-09-03T15:06:24.125Z,1.97
2018-09-03T15:08:53.261Z,2.30
2018-09-03T15:11:26.624Z,2.03
2018-09-03T15:14:00.409Z,2.42
2018-09-03T15:16:45.113Z,2.40
2018-09-03T15:19:16.262Z,2.30
2018-09-03T15:21:46.873Z,2.37
2018-09-03T15:24:16.096Z,2.47
2018-09-03T15:26:49.607Z,2.57
2018-09-03T15:29:18.615Z,2.43
2018-09-03T15:31:48.037Z,2.37
2018-09-03T15:34:17.557Z,2.33
2018-09-03T15:36:49.815Z,2.50
2018-09-03T15:39:20.286Z,2.43
2018-09-03T15:41:48.839Z,2.50
2018-09-03T15:44:19.298Z,3.00
2018-09-03T15:46:50.772Z,2.20
2018-09-03T15:49:21.325Z,2.50
2018-09-03T15:51:50.847Z,2.73
2018-09-03T15:54:19.939Z,2.10
2018-09-03T15:57:00.539Z,2.50
2018-09-03T15:59:29.557Z,2.40
2018-09-03T16:02:00.469Z,2.40
2018-09-03T16:04:31.253Z,2.33
2018-09-03T16:07:02.734Z,2.47
2018-09-03T16:09:32.237Z,2.57
2018-09-03T16:12:01.025Z,2.60
2018-09-03T16:14:34.846Z,2.70
2018-09-03T16:17:04.259Z,2.43
2018-09-03T16:19:33.557Z,2.57
2018-09-03T16:22:03.854Z,2.57
2018-09-03T16:24:37.146Z,2.57
2018-09-03T16:27:06.519Z,2.77
2018-09-03T16:29:36.110Z,2.40
2018-09-03T16:32:05.427Z,2.93
2018-09-03T16:34:44.326Z,2.47
2018-09-03T16:37:13.956Z,3.33
2018-09-03T16:39:42.756Z,3.13
2018-09-03T16:42:13.507Z,2.70
2018-09-03T16:44:53.376Z,2.30
2018-09-03T16:47:22.519Z,2.80
2018-09-03T16:49:52.107Z,2.77
2018-09-03T16:52:22.578Z,2.30
2018-09-03T16:54:56.013Z,2.80
2018-09-03T16:57:25.405Z,2.67
2018-09-03T16:59:54.808Z,2.47
2018-09-03T17:02:24.573Z,2.53
2018-09-03T17:04:55.429Z,2.63
2018-09-03T17:07:24.861Z,2.67
2018-09-03T17:09:54.788Z,2.60
2018-09-03T17:12:23.921Z,3.27
2018-09-03T17:14:53.246Z,2.90
2018-09-03T17:17:22.869Z,2.77
2018-09-03T17:19:53.481Z,2.50
2018-09-03T17:22:24.314Z,2.60
2018-09-03T17:25:05.717Z,2.43
2018-09-03T17:27:36.227Z,2.60
2018-09-03T17:30:05.782Z,2.70
2018-09-03T17:32:35.899Z,2.60
2018-09-03T17:35:05.752Z,2.47
2018-09-03T17:37:35.391Z,2.37
2018-09-03T17:40:05.351Z,2.60
2018-09-03T17:42:35.271Z,2.30
2018-09-03T17:45:06.008Z,2.43
2018-09-03T17:47:34.941Z,2.23
2018-09-03T17:50:04.470Z,2.10
2018-09-03T17:52:34.658Z,2.13
2018-09-03T17:55:03.319Z,2.30
2018-09-03T17:57:32.623Z,2.40
2018-09-03T18:00:01.933Z,2.03
2018-09-03T18:02:30.996Z,2.20
2018-09-03T18:05:00.364Z,2.10
2018-09-03T18:07:30.314Z,2.40
2018-09-03T18:10:02.248Z,2.50
2018-09-03T18:12:36.577Z,2.23
2018-09-03T18:15:07.053Z,2.07
2018-09-03T18:17:38.127Z,2.13
2018-09-03T18:20:07.090Z,2.60
2018-09-03T18:22:37.090Z,2.60
2018-09-03T18:25:05.819Z,2.20
2018-09-03T18:27:35.596Z,2.17
2018-09-03T18:30:04.963Z,2.60
2018-09-03T18:32:35.353Z,2.30
2018-09-03T18:35:04.213Z,2.37
2018-09-03T18:37:36.649Z,2.30
2018-09-03T18:40:06.222Z,2.40
2018-09-03T18:42:35.022Z,2.37
2018-09-03T18:45:04.394Z,2.30
2018-09-03T18:47:33.569Z,2.20
2018-09-03T18:50:03.943Z,2.53
2018-09-03T18:52:33.014Z,2.10
2018-09-03T18:55:01.683Z,2.30
2018-09-03T18:57:43.131Z,2.20
2018-09-03T19:00:13.614Z,2.47
2018-09-03T19:02:42.208Z,2.07
2018-09-03T19:05:11.470Z,2.37
2018-09-03T19:07:44.722Z,2.57
2018-09-03T19:10:15.808Z,2.20
2018-09-03T19:12:45.576Z,2.20
2018-09-03T19:15:15.895Z,2.40
2018-09-03T19:17:46.850Z,2.40
2018-09-03T19:20:16.182Z,2.37
2018-09-03T19:22:45.486Z,2.40
2018-09-03T19:25:14.515Z,2.30
2018-09-03T19:27:44.842Z,2.40
2018-09-03T19:30:13.489Z,2.70
2018-09-03T19:32:43.241Z,2.30
2018-09-03T19:35:12.743Z,2.50
2018-09-03T19:37:55.415Z,2.30
2018-09-03T19:40:24.766Z,2.13
2018-09-03T19:42:54.039Z,2.30
2018-09-03T19:45:23.078Z,2.20
2018-09-03T19:47:52.715Z,2.43
2018-09-03T19:50:21.700Z,2.20
2018-09-03T19:52:51.399Z,2.30
2018-09-03T19:55:20.268Z,2.20
2018-09-03T20:00:30.626Z,2.20
2018-09-03T20:03:00.885Z,2.10
2018-09-03T20:05:31.342Z,2.20
2018-09-03T20:08:00.402Z,2.10
2018-09-03T20:10:30.105Z,2.37
2018-09-03T20:13:03.481Z,2.00
2018-09-03T20:15:33.325Z,2.27
2018-09-03T20:18:03.896Z,2.10
2018-09-03T20:20:33.022Z,2.50
2018-09-03T20:23:03.911Z,2.40
2018-09-03T20:25:33.967Z,2.13
2018-09-03T20:28:06.497Z,2.17
2018-09-03T20:30:35.370Z,2.33
2018-09-03T20:33:05.315Z,2.50
2018-09-03T20:35:36.136Z,2.27
2018-09-03T20:38:10.124Z,2.10
2018-09-03T20:40:39.088Z,1.90
2018-09-03T20:43:08.882Z,2.30
2018-09-03T20:45:38.807Z,2.30
2018-09-03T20:51:02.666Z,2.20
2018-09-03T20:53:32.059Z,2.17
2018-09-03T20:56:01.402Z,2.40
2018-09-03T20:58:30.315Z,2.30
2018-09-03T21:01:01.219Z,2.27
2018-09-03T21:03:31.246Z,2.70
2018-09-03T21:06:01.446Z,2.20
2018-09-03T21:08:30.775Z,2.40
2018-09-03T21:10:59.486Z,2.57
2018-09-03T21:13:28.074Z,2.33
2018-09-03T21:15:57.987Z,2.50
2018-09-03T21:18:27.283Z,2.40
2018-09-03T21:27:42.566Z,2.53
2018-09-03T21:30:12.708Z,2.23
2018-09-03T21:32:42.215Z,2.20
2018-09-03T21:35:12.867Z,2.17
2018-09-03T21:37:42.127Z,2.20
2018-09-03T21:40:17.575Z,2.20
2018-09-03T21:42:46.874Z,2.87
2018-09-03T21:45:23.817Z,2.30
2018-09-03T21:48:04.160Z,2.50
2018-09-03T21:50:34.162Z,2.50
2018-09-03T21:53:03.474Z,2.40
2018-09-03T21:55:43.586Z,2.83
2018-09-03T21:58:12.222Z,2.43
2018-09-03T22:00:44.419Z,2.60
2018-09-03T22:03:13.821Z,2.50
2018-09-03T22:05:50.399Z,2.40
2018-09-03T22:08:19.411Z,3.03
2018-09-03T22:10:49.132Z,2.63
2018-09-03T22:13:17.707Z,2.83
2018-09-03T22:15:50.378Z,2.60
2018-09-03T22:18:20.664Z,2.90
2018-09-03T22:20:50.712Z,2.77
2018-09-03T22:23:19.569Z,2.40
2018-09-03T22:25:52.402Z,2.50
2018-09-03T22:28:21.797Z,2.97
2018-09-03T22:30:50.880Z,2.70
2018-09-03T22:33:20.303Z,2.60
2018-09-03T22:35:54.261Z,2.70
2018-09-03T22:38:23.107Z,2.30
2018-09-03T22:40:53.025Z,2.30
2018-09-03T22:43:22.180Z,2.83
2018-09-03T22:45:51.628Z,2.67
2018-09-03T22:48:28.466Z,2.60
2018-09-03T22:50:57.079Z,2.63
2018-09-03T22:53:26.813Z,2.73
2018-09-03T22:55:56.581Z,2.57
2018-09-03T22:58:26.449Z,3.20
2018-09-03T23:00:55.704Z,3.10
2018-09-03T23:03:25.909Z,2.43
2018-09-03T23:05:55.214Z,2.80
2018-09-03T23:08:36.599Z,2.60
2018-09-03T23:11:07.064Z,2.50
2018-09-03T23:13:36.998Z,2.90
2018-09-03T23:16:06.574Z,2.30
2018-09-03T23:18:42.218Z,2.47
2018-09-03T23:21:12.427Z,2.37
2018-09-03T23:23:41.619Z,2.53
2018-09-03T23:26:11.187Z,2.50
2018-09-03T23:29:06.392Z,2.60
2018-09-03T23:31:40.501Z,2.60
2018-09-03T23:34:09.727Z,2.77
2018-09-03T23:36:39.069Z,2.73
2018-09-03T23:39:15.898Z,2.83
2018-09-03T23:41:46.332Z,2.77
2018-09-03T23:44:15.213Z,2.60
2018-09-03T23:46:45.388Z,3.00
2018-09-03T23:49:15.248Z,2.63
2018-09-03T23:51:44.399Z,2.50
2018-09-03T23:54:13.662Z,2.30
2018-09-03T23:56:42.766Z,2.83
